• Join FlightAware (Why Join?)
  • Login
  • US Flag 
07:03PM EDT


 

Airport Tracker/Info


-or-


 

Live Flight TrackerFlight Track Log ✈ BHS415 ✈ 18-Aug-2013 ✈ MBPV / PLS - MYNN / NAS

Flight Track Log - Related Links

Times and Time Zones

All times are in EDT time to prevent confusion due to time zone crossing. See the BHS415 flight status page for this flight to view local times or setup timezone preferences in your user account.

Time Position Orientation Groundspeed Altitude Reporting Facility
EDT Latitude Longitude Course Direction KTS MPH feet Rate Location/Type
12:33PM 21.7694 -72.2142 309° West 245 282 2,300  Level Miami Center
12:34PM 21.7642 -72.1786 99° East 189 217 3,700 1,320 Climbing Miami Center
12:35PM 21.7631 -72.1406 92° East 145 167 5,000 1,200 Climbing Miami Center
12:36PM 21.9880 -72.5957 302° West  Level FlightAware Approximate
12:36PM 21.7811 -72.1153 52° Northeast 96 110 6,200  Level Miami Center
12:37PM 22.0155 -72.6540 309° West  Level FlightAware Approximate
12:37PM 21.8136 -72.1589 309° West 90 104 7,300  Level Miami Center
12:38PM 22.0551 -72.7068 309° West  Level FlightAware Approximate
12:38PM 21.8425 -72.2117 301° West 164 189 8,400  Level Miami Center
12:39PM 21.8733 -72.2664 301° West 186 214 9,500 1,020 Climbing Miami Center
12:40PM 21.9083 -72.3167 307° West 201 231 10,500 900 Climbing Miami Center
12:41PM 21.9411 -72.3692 304° West 211 243 11,400 900 Climbing Miami Center
12:42PM 21.9739 -72.4217 304° West 211 243 12,300 840 Climbing Miami Center
12:43PM 22.0089 -72.4764 305° West 206 237 13,100 780 Climbing Miami Center
12:44PM 22.0417 -72.5269 305° West 206 237 13,900 720 Climbing Miami Center
12:45PM 22.0725 -72.5819 301° West 206 237 14,600 600 Climbing Miami Center
12:46PM 22.1075 -72.6367 305° West 206 237 15,200 660 Climbing Miami Center
12:47PM 22.1403 -72.6894 304° West 206 237 16,000 600 Climbing Miami Center
12:48PM 22.1731 -72.7422 304° West 206 237 16,500 480 Climbing Miami Center
12:49PM 22.2078 -72.7950 305° West 206 237 17,000 480 Climbing Miami Center
12:50PM 22.2425 -72.8500 304° West 211 243 17,500 420 Climbing Miami Center
12:51PM 22.2731 -72.8983 304° West 211 243 17,900 420 Climbing Miami Center
12:52PM 22.3058 -72.9558 302° West 217 250 18,400 480 Climbing Miami Center
12:53PM 22.3428 -73.0131 305° West 228 262 18,900 420 Climbing Miami Center
12:54PM 22.3778 -73.0681 305° West 233 268 19,300 480 Climbing Miami Center
12:55PM 22.4106 -73.1256 302° West 233 268 19,900 600 Climbing Miami Center
12:56PM 22.4453 -73.1806 304° West 233 268 20,500 480 Climbing Miami Center
12:57PM 22.4800 -73.2381 303° West 228 262 20,900 360 Climbing Miami Center
12:58PM 22.5128 -73.2978 301° West 228 262 21,300 300 Climbing Miami Center
12:59PM 22.5536 -73.3486 311° West 228 262 21,600 300 Climbing Miami Center
01:00PM 22.5842 -73.4083 299° West 228 262 22,000 180 Climbing Miami Center
01:01PM 22.6189 -73.4658 303° West 228 262 22,000  Level Miami Center
01:02PM 22.6558 -73.5281 303° West 233 268 22,000  Level Miami Center
01:03PM 22.6925 -73.5833 306° West 239 275 22,000  Level Miami Center
01:04PM 22.7314 -73.6475 303° West 244 281 22,000  Level Miami Center
01:05PM 22.7683 -73.7142 301° West 250 288 22,000  Level Miami Center
01:06PM 22.8094 -73.7808 304° West 255 293 22,000  Level Miami Center
01:07PM 22.8464 -73.8453 302° West 261 300 22,000  Level Miami Center
01:08PM 22.8936 -73.9119 308° West 261 300 22,000  Level Miami Center
01:09PM 22.9367 -73.9764 306° West 261 300 22,000  Level Miami Center
01:10PM 22.9733 -74.0408 302° West 256 295 22,000  Level Miami Center
01:11PM 23.0122 -74.1078 302° West 256 295 22,000  Level Miami Center
01:12PM 23.0508 -74.1722 303° West 256 295 22,000  Level Miami Center
01:13PM 23.0917 -74.2392 304° West 256 295 22,000  Level Miami Center
01:14PM 23.1325 -74.3017 305° West 256 295 22,000  Level Miami Center
01:15PM 23.1692 -74.3686 301° West 256 295 22,000  Level Miami Center
01:16PM 23.2122 -74.4356 305° West 261 300 22,000  Level Miami Center
01:17PM 23.2486 -74.5006 301° West 261 300 22,000  Level Miami Center
01:18PM 23.2894 -74.5675 304° West 261 300 22,000  Level Miami Center
01:19PM 23.3300 -74.6303 305° West 261 300 22,000  Level Miami Center
01:20PM 23.3686 -74.6975 302° West 261 300 22,000  Level Miami Center
01:21PM 23.4050 -74.7669 300° West 261 300 22,000  Level Miami Center
01:22PM 23.4417 -74.8344 301° West 261 300 22,000  Level Miami Center
01:23PM 23.4758 -74.9039 298° West 261 300 22,000  Level Miami Center
01:24PM 23.5122 -74.9714 300° West 261 300 22,000  Level Miami Center
01:25PM 23.5486 -75.0389 300° West 261 300 22,000  Level Miami Center
01:26PM 23.5828 -75.1064 299° West 261 300 22,000  Level Miami Center
01:27PM 23.6192 -75.1739 300° West 261 300 22,000  Level Miami Center
01:28PM 23.6556 -75.2414 300° West 261 300 22,000  Level Miami Center
01:29PM 23.6917 -75.3092 300° West 261 300 22,000  Level Miami Center
01:30PM 23.7364 -75.3719 308° West 261 300 22,000  Level Miami Center
01:31PM 23.7767 -75.4375 304° West 261 300 22,000  Level Miami Center
01:32PM 23.8189 -75.5028 305° West 261 300 22,000  Level Miami Center
01:33PM 23.8594 -75.5706 303° West 261 300 22,000  Level Miami Center
01:34PM 23.8994 -75.6361 304° West 261 300 22,000  Level Miami Center
01:35PM 23.9397 -75.7017 304° West 261 300 22,000  Level Miami Center
01:36PM 23.9800 -75.7694 303° West 261 300 22,000  Level Miami Center
01:37PM 24.0203 -75.8350 304° West 261 300 22,000  Level Miami Center
01:38PM 24.0603 -75.9008 304° West 261 300 22,000 -180 Level Miami Center
01:39PM 24.1089 -75.9822 303° West 261 300 21,700 -420 Descending Miami Center
01:40PM 24.1533 -76.0525 305° West 261 300 21,200 -540 Descending Miami Center
01:41PM 24.1975 -76.1275 303° West 274 315 20,700 -600 Descending Miami Center
01:42PM 24.2500 -76.1933 311° West 285 328 20,100 -660 Descending Miami Center
01:43PM 24.3025 -76.2614 310° West 290 334 19,400 -780 Descending Miami Center
01:44PM 24.3467 -76.3389 302° West 296 341 18,600 -900 Descending Miami Center
01:45PM 24.3931 -76.4183 303° West 302 348 17,700 -1,020 Descending Miami Center
01:46PM 24.4414 -76.5097 300° West 308 354 16,600 -1,080 Descending Miami Center
01:47PM 24.4894 -76.5869 304° West 308 354 15,600 -1,020 Descending Miami Center
01:48PM 24.5336 -76.6692 301° West 313 360 14,600 -1,140 Descending Miami Center
01:49PM 24.5797 -76.7514 302° West 313 360 13,400 -1,320 Descending Miami Center
01:50PM 24.6256 -76.8314 302° West 313 360 12,000 -1,440 Descending Miami Center
01:51PM 24.6736 -76.9092 304° West 313 360 10,600 -1,380 Descending Miami Center
01:52PM 24.7197 -76.9800 306° West 308 354 9,300 -1,260 Descending Miami Center
01:53PM 24.7697 -77.0556 306° West 297 342 8,100 -1,200 Descending Miami Center
01:55PM 24.8280 -77.1502 306° West  Level FlightAware Approximate
02:02PM 25.0333 -77.4500 310° West  Level FlightAware Approximate
02:03PM 25.0390 -77.4662 310° West  Level Estimated
02:04PM 25.0390 -77.4662 310° West  Level Estimated
02:05PM 25.0390 -77.4662 310° West  Level Estimated
02:06PM 25.0390 -77.4662 310° West  Level Estimated
02:07PM 25.0390 -77.4662 310° West  Level Estimated
02:08PM 25.0390 -77.4662 310° West  Level Estimated
02:09PM 25.0390 -77.4662 310° West  Level Estimated
02:10PM 25.0390 -77.4662 310° West  Level Estimated
02:11PM 25.0390 -77.4662 310° West  Level Estimated
02:12PM 25.0390 -77.4662 310° West  Level Estimated
02:13PM 25.0390 -77.4662 310° West  Level Estimated
02:14PM 25.0390 -77.4662 310° West  Level Estimated
02:15PM 25.0390 -77.4662 310° West  Level Estimated
02:16PM 25.0390 -77.4662 310° West  Level Estimated